Time;durP1;ratioP1;P1;durP2;ratioP2;P2;SDS_P1;SDS_P2;PMS_P1;PMS_P2;Temp;Humidity;BMP_temperature;BMP_pressure;BME280_temperature;BME280_humidity;BME280_pressure;Samples;Min_cycle;Max_cycle;Signal;HPM_P1;HPM_P2
2022/12/08 00:01:24;;;;;;;2.10;2.00;;;3.10;99.90;;;;;;4928296;29;20218;-64
2022/12/08 00:03:51;;;;;;;2.20;2.10;;;3.10;99.90;;;;;;4928021;28;20200;-62
2022/12/08 00:09:24;;;;;;;2.10;2.00;;;3.10;99.90;;;;;;4931505;28;20218;-62
2022/12/08 00:11:59;;;;;;;1.77;1.67;;;3.00;99.90;;;;;;4930480;28;20254;-63
2022/12/08 00:14:28;;;;;;;1.97;1.87;;;3.10;99.90;;;;;;4930818;29;20617;-61
2022/12/08 00:16:55;;;;;;;1.90;1.80;;;3.10;99.90;;;;;;4935736;28;20259;-61
2022/12/08 00:19:24;;;;;;;2.10;2.00;;;3.10;99.90;;;;;;4936425;28;20274;-62
2022/12/08 00:21:52;;;;;;;2.57;2.37;;;3.10;99.90;;;;;;4934613;28;20280;-62
2022/12/08 00:24:21;;;;;;;2.17;2.07;;;3.10;99.90;;;;;;4932259;28;20244;-62
2022/12/08 00:26:48;;;;;;;1.90;1.80;;;3.10;99.90;;;;;;4950687;28;20236;-63
2022/12/08 00:29:16;;;;;;;1.70;1.60;;;3.10;99.90;;;;;;4930645;28;20579;-63
2022/12/08 00:31:43;;;;;;;1.70;1.60;;;3.00;99.90;;;;;;4930848;28;20299;-62
2022/12/08 00:34:11;;;;;;;1.80;1.70;;;3.00;99.90;;;;;;4930519;28;20218;-61
2022/12/08 00:36:38;;;;;;;1.50;1.50;;;3.00;99.90;;;;;;4934181;28;20307;-62
2022/12/08 00:39:06;;;;;;;1.30;1.30;;;2.90;99.90;;;;;;4940135;28;20211;-63
2022/12/08 00:44:20;;;;;;;1.20;1.20;;;2.90;99.90;;;;;;4918046;28;20291;-62
2022/12/08 00:46:48;;;;;;;1.60;1.50;;;2.90;99.90;;;;;;4938845;28;20319;-63
2022/12/08 00:49:15;;;;;;;1.30;1.30;;;2.90;99.90;;;;;;4939197;28;20208;-62
2022/12/08 00:51:42;;;;;;;1.23;1.23;;;2.90;99.90;;;;;;4938349;28;20236;-62
2022/12/08 00:54:10;;;;;;;1.40;1.40;;;3.00;99.90;;;;;;4935669;28;20310;-62
2022/12/08 00:56:38;;;;;;;1.53;1.50;;;3.10;99.90;;;;;;4931231;29;20576;-62
2022/12/08 00:59:06;;;;;;;1.60;1.50;;;3.10;99.90;;;;;;4931194;28;20259;-62
2022/12/08 01:01:34;;;;;;;1.40;1.40;;;3.10;99.90;;;;;;4929245;28;20204;-62
2022/12/08 01:04:03;;;;;;;1.30;1.30;;;3.20;99.90;;;;;;4928758;28;20208;-63
2022/12/08 01:06:30;;;;;;;1.80;1.70;;;3.20;99.90;;;;;;4921555;28;20230;-61
2022/12/08 01:08:57;;;;;;;1.70;1.60;;;3.20;99.90;;;;;;4928957;29;20208;-62
2022/12/08 01:11:24;;;;;;;1.43;1.43;;;3.20;99.90;;;;;;4929089;29;20292;-63
2022/12/08 01:13:53;;;;;;;1.63;1.53;;;3.30;99.90;;;;;;4929640;28;20222;-65
2022/12/08 01:16:22;;;;;;;1.73;1.63;;;3.30;99.90;;;;;;4928979;28;20234;-64
2022/12/08 01:18:49;;;;;;;1.50;1.50;;;3.30;99.90;;;;;;4928801;28;20227;-64
2022/12/08 01:21:17;;;;;;;1.30;1.30;;;3.30;99.90;;;;;;4929267;28;20211;-63
2022/12/08 01:23:44;;;;;;;1.43;1.43;;;3.30;99.90;;;;;;4931040;29;20210;-64
2022/12/08 01:26:13;;;;;;;1.60;1.50;;;3.30;99.90;;;;;;4932350;28;20227;-63
2022/12/08 01:28:40;;;;;;;1.50;1.50;;;3.30;99.90;;;;;;4933402;28;20208;-63
2022/12/08 01:31:13;;;;;;;1.50;1.50;;;3.40;99.90;;;;;;4933674;28;20201;-64
2022/12/08 01:33:40;;;;;;;1.43;1.40;;;3.40;99.90;;;;;;4933869;28;20212;-63
2022/12/08 01:36:07;;;;;;;1.70;1.60;;;3.40;99.90;;;;;;4933985;29;20314;-64
2022/12/08 01:38:34;;;;;;;1.30;1.30;;;3.40;99.90;;;;;;4934022;28;20287;-63
2022/12/08 01:41:01;;;;;;;1.70;1.60;;;3.30;99.90;;;;;;4934179;28;20680;-64
2022/12/08 01:43:45;;;;;;;1.40;1.40;;;3.30;99.90;;;;;;4931575;28;20204;-65
2022/12/08 01:46:13;;;;;;;1.50;1.40;;;3.40;99.90;;;;;;4933417;28;20258;-65
2022/12/08 01:48:40;;;;;;;1.30;1.30;;;3.40;99.90;;;;;;4931930;28;20214;-64
2022/12/08 01:51:07;;;;;;;1.37;1.37;;;3.40;99.90;;;;;;4934011;28;20204;-64
2022/12/08 01:53:34;;;;;;;1.33;1.30;;;3.30;99.90;;;;;;4934212;29;20204;-64
2022/12/08 01:56:06;;;;;;;1.40;1.40;;;3.20;99.90;;;;;;4934549;28;20224;-65
2022/12/08 01:58:37;;;;;;;1.10;1.10;;;3.10;99.90;;;;;;4927440;29;20200;-64
2022/12/08 02:01:05;;;;;;;1.23;1.23;;;3.00;99.90;;;;;;4928394;28;20204;-64
2022/12/08 02:03:38;;;;;;;1.40;1.40;;;2.90;99.90;;;;;;4933821;28;20617;-63
2022/12/08 02:06:05;;;;;;;1.20;1.20;;;2.90;99.90;;;;;;4933422;28;20307;-65
2022/12/08 02:08:33;;;;;;;1.30;1.30;;;2.90;99.90;;;;;;4933079;28;20234;-64
2022/12/08 02:11:00;;;;;;;1.50;1.40;;;2.80;99.90;;;;;;4933009;28;20290;-65
2022/12/08 02:13:27;;;;;;;1.30;1.30;;;2.80;99.90;;;;;;4933066;28;20610;-64
2022/12/08 02:16:03;;;;;;;1.50;1.40;;;2.80;99.90;;;;;;4932848;28;20236;-63
2022/12/08 02:18:50;;;;;;;1.30;1.30;;;2.70;99.90;;;;;;4925582;29;20291;-64
2022/12/08 02:21:21;;;;;;;1.30;1.30;;;2.70;99.90;;;;;;4933160;28;20208;-63
2022/12/08 02:23:59;;;;;;;1.40;1.40;;;2.70;99.90;;;;;;4932708;28;20627;-63
2022/12/08 02:26:47;;;;;;;1.20;1.20;;;2.70;99.90;;;;;;4932594;28;20767;-65
2022/12/08 02:29:36;;;;;;;1.33;1.33;;;2.70;99.90;;;;;;4929142;29;20208;-63
2022/12/08 02:32:23;;;;;;;1.47;1.37;;;2.70;99.90;;;;;;4922647;28;20215;-62
2022/12/08 02:34:57;;;;;;;1.60;1.50;;;2.70;99.90;;;;;;4932071;29;20304;-63
2022/12/08 02:37:30;;;;;;;1.30;1.20;;;2.70;99.90;;;;;;4932569;28;20222;-63
2022/12/08 02:40:02;;;;;;;1.20;1.20;;;2.70;99.90;;;;;;4925135;29;20212;-65
2022/12/08 02:42:37;;;;;;;1.20;1.20;;;2.80;99.90;;;;;;4924585;28;20246;-65
2022/12/08 02:45:10;;;;;;;1.67;1.50;;;2.90;99.90;;;;;;4935071;29;20207;-63
2022/12/08 02:47:38;;;;;;;1.27;1.20;;;2.90;99.90;;;;;;4936663;29;20259;-64
2022/12/08 02:50:07;;;;;;;2.60;1.40;;;3.00;99.90;;;;;;4938780;29;20267;-61
2022/12/08 02:52:44;;;;;;;1.47;1.30;;;3.00;99.90;;;;;;4939370;29;20211;-62
2022/12/08 02:55:20;;;;;;;1.73;1.43;;;3.00;99.90;;;;;;4939190;28;20217;-65
2022/12/08 02:58:15;;;;;;;1.27;1.27;;;3.00;99.90;;;;;;4943154;29;20230;-63
2022/12/08 03:00:53;;;;;;;1.30;1.30;;;3.00;99.90;;;;;;4937281;29;20299;-61
2022/12/08 03:03:31;;;;;;;1.17;1.17;;;3.10;99.90;;;;;;4937461;29;20232;-62
2022/12/08 03:06:08;;;;;;;1.30;1.30;;;3.10;99.90;;;;;;4934849;28;20228;-62
2022/12/08 03:08:42;;;;;;;1.20;1.20;;;3.20;99.90;;;;;;4932641;29;20234;-63
2022/12/08 03:11:13;;;;;;;1.33;1.33;;;3.20;99.90;;;;;;4932340;29;20210;-63
2022/12/08 03:13:43;;;;;;;1.80;1.70;;;3.30;99.90;;;;;;4932733;29;20292;-63
2022/12/08 03:16:12;;;;;;;1.73;1.60;;;3.20;99.90;;;;;;4933165;28;20244;-63
2022/12/08 03:18:42;;;;;;;2.00;1.90;;;3.30;99.90;;;;;;4933206;29;20204;-63
2022/12/08 03:21:14;;;;;;;1.97;1.87;;;3.30;99.90;;;;;;4932181;28;20227;-64
2022/12/08 03:23:44;;;;;;;2.00;1.90;;;3.30;99.90;;;;;;4931860;29;20204;-63
2022/12/08 03:26:16;;;;;;;1.90;1.80;;;3.30;99.90;;;;;;4931827;29;20286;-64
2022/12/08 03:28:43;;;;;;;1.67;1.57;;;3.40;99.90;;;;;;4931879;29;20236;-64
2022/12/08 03:31:13;;;;;;;1.80;1.70;;;3.40;99.90;;;;;;4931756;28;20672;-63
2022/12/08 03:33:43;;;;;;;1.93;1.83;;;3.50;99.90;;;;;;4931559;29;20708;-64
2022/12/08 03:36:12;;;;;;;1.73;1.63;;;3.50;99.90;;;;;;4932120;28;20235;-63
2022/12/08 03:38:41;;;;;;;1.70;1.60;;;3.60;99.90;;;;;;4931791;29;20397;-63
2022/12/08 03:41:20;;;;;;;1.83;1.73;;;3.60;99.90;;;;;;4941124;28;20258;-64
2022/12/08 03:43:48;;;;;;;1.90;1.80;;;3.60;99.90;;;;;;4939163;28;20283;-65
2022/12/08 03:46:16;;;;;;;2.00;1.90;;;3.60;99.90;;;;;;4931269;28;20276;-65
2022/12/08 03:48:43;;;;;;;2.07;1.97;;;3.60;99.90;;;;;;4931746;29;20220;-65
2022/12/08 03:51:11;;;;;;;2.07;1.97;;;3.60;99.90;;;;;;4930861;29;20748;-65
2022/12/08 03:53:38;;;;;;;1.60;1.50;;;3.50;99.90;;;;;;4931480;29;20208;-63
2022/12/08 03:56:11;;;;;;;1.40;1.40;;;3.50;99.90;;;;;;4931643;29;20226;-64
2022/12/08 03:58:38;;;;;;;1.53;1.47;;;3.50;99.90;;;;;;4931548;29;20204;-64
2022/12/08 04:01:05;;;;;;;1.77;1.67;;;3.40;99.90;;;;;;4931571;29;20230;-65
2022/12/08 04:03:32;;;;;;;1.83;1.73;;;3.40;99.90;;;;;;4931373;29;20207;-62
2022/12/08 04:05:58;;;;;;;1.87;1.77;;;3.50;99.90;;;;;;4931429;29;20223;-64
2022/12/08 04:08:27;;;;;;;1.70;1.60;;;3.50;99.90;;;;;;4932304;28;20239;-64
2022/12/08 04:10:54;;;;;;;1.70;1.60;;;3.60;99.90;;;;;;4932182;29;20204;-65
2022/12/08 04:13:20;;;;;;;1.33;1.33;;;3.60;99.90;;;;;;4931595;29;20208;-63
2022/12/08 04:15:48;;;;;;;1.90;1.80;;;3.60;99.90;;;;;;4938083;29;20626;-64
2022/12/08 04:18:15;;;;;;;1.67;1.60;;;3.60;99.90;;;;;;4932837;29;20644;-65
2022/12/08 04:20:44;;;;;;;1.70;1.60;;;3.60;99.90;;;;;;4932308;29;20212;-63
2022/12/08 04:23:11;;;;;;;1.70;1.60;;;3.60;99.90;;;;;;4936361;29;20299;-63
2022/12/08 04:25:40;;;;;;;1.73;1.63;;;3.60;99.90;;;;;;4934496;29;20204;-64
2022/12/08 04:28:06;;;;;;;1.80;1.70;;;3.60;99.90;;;;;;4933354;29;20231;-65
2022/12/08 04:30:34;;;;;;;1.90;1.80;;;3.60;99.90;;;;;;4933466;28;20208;-65
2022/12/08 04:33:01;;;;;;;1.50;1.50;;;3.60;99.90;;;;;;4932672;29;20204;-64
2022/12/08 04:35:28;;;;;;;1.83;1.73;;;3.60;99.90;;;;;;4932107;29;20210;-65
2022/12/08 04:37:55;;;;;;;1.50;1.50;;;3.60;99.90;;;;;;4932562;29;20235;-64
2022/12/08 04:40:22;;;;;;;1.50;1.50;;;3.60;99.90;;;;;;4932882;29;20240;-63
2022/12/08 04:42:50;;;;;;;1.47;1.47;;;3.60;99.90;;;;;;4931342;29;20287;-65
2022/12/08 04:45:17;;;;;;;1.50;1.50;;;3.70;99.90;;;;;;4932286;29;20211;-65
2022/12/08 04:47:44;;;;;;;1.40;1.40;;;3.60;99.90;;;;;;4932457;29;20230;-65
2022/12/08 04:50:11;;;;;;;1.50;1.40;;;3.60;99.90;;;;;;4932121;28;20213;-64
2022/12/08 04:52:39;;;;;;;1.50;1.50;;;3.70;99.90;;;;;;4931521;28;20219;-66
2022/12/08 04:55:07;;;;;;;1.43;1.43;;;3.70;99.90;;;;;;4930158;28;20204;-63
2022/12/08 04:57:34;;;;;;;1.70;1.60;;;3.70;99.90;;;;;;4933034;29;20226;-63
2022/12/08 05:00:03;;;;;;;1.70;1.60;;;3.70;99.90;;;;;;4927219;29;20232;-62
2022/12/08 05:02:31;;;;;;;1.47;1.47;;;3.80;99.90;;;;;;4929625;29;20251;-64
2022/12/08 05:04:58;;;;;;;1.40;1.40;;;3.70;99.90;;;;;;4936616;28;20204;-64
2022/12/08 05:07:25;;;;;;;1.40;1.30;;;3.70;99.90;;;;;;4935494;29;20326;-63
2022/12/08 05:09:52;;;;;;;1.60;1.50;;;3.70;99.90;;;;;;4934438;29;20204;-64
2022/12/08 05:12:19;;;;;;;1.70;1.60;;;3.80;99.90;;;;;;4935003;28;20212;-64
2022/12/08 05:14:47;;;;;;;1.50;1.50;;;3.80;99.90;;;;;;4935420;29;20216;-65
2022/12/08 05:17:15;;;;;;;1.77;1.67;;;3.90;99.90;;;;;;4935392;28;20310;-65
2022/12/08 05:19:42;;;;;;;1.60;1.50;;;3.90;99.90;;;;;;4935807;29;20295;-62
2022/12/08 05:22:09;;;;;;;1.67;1.57;;;3.90;99.90;;;;;;4938419;28;20204;-62
2022/12/08 05:24:36;;;;;;;1.40;1.40;;;3.90;99.90;;;;;;4935215;29;20214;-63
2022/12/08 05:27:04;;;;;;;1.47;1.43;;;4.00;99.90;;;;;;4931981;29;20253;-65
2022/12/08 05:29:30;;;;;;;1.60;1.50;;;4.00;99.90;;;;;;4935280;29;20238;-64
2022/12/08 05:31:57;;;;;;;1.57;1.47;;;4.00;99.90;;;;;;4934831;29;20299;-65
2022/12/08 05:34:26;;;;;;;1.60;1.50;;;4.00;99.90;;;;;;4934095;28;20204;-62
2022/12/08 05:36:52;;;;;;;1.30;1.30;;;4.00;99.90;;;;;;4933924;29;20232;-61
2022/12/08 05:39:19;;;;;;;1.33;1.33;;;4.10;99.90;;;;;;4934575;28;20245;-64
2022/12/08 05:41:46;;;;;;;1.50;1.40;;;4.10;99.90;;;;;;4935809;29;20234;-65
2022/12/08 05:44:13;;;;;;;1.30;1.30;;;4.20;99.90;;;;;;4936810;28;20208;-64
2022/12/08 05:46:40;;;;;;;1.40;1.40;;;4.30;99.90;;;;;;4935942;29;20228;-64
2022/12/08 05:49:07;;;;;;;1.60;1.50;;;4.30;99.90;;;;;;4935042;29;20220;-63
2022/12/08 05:51:35;;;;;;;1.70;1.60;;;4.20;99.90;;;;;;4935052;29;20680;-63
2022/12/08 05:54:02;;;;;;;1.70;1.60;;;4.10;99.90;;;;;;4934351;29;20212;-65
2022/12/08 05:56:28;;;;;;;1.90;1.80;;;4.10;99.90;;;;;;4935304;28;20224;-64
2022/12/08 05:58:55;;;;;;;1.83;1.73;;;4.10;99.90;;;;;;4933810;29;20196;-63
2022/12/08 06:01:25;;;;;;;1.80;1.70;;;4.10;99.90;;;;;;4930520;29;20212;-62
2022/12/08 06:03:53;;;;;;;1.90;1.80;;;4.00;99.90;;;;;;4932442;29;20212;-64
2022/12/08 06:06:21;;;;;;;1.93;1.83;;;3.90;99.90;;;;;;4933490;28;20228;-63
2022/12/08 06:08:49;;;;;;;1.80;1.70;;;3.90;99.90;;;;;;4932427;29;20224;-63
2022/12/08 06:11:21;;;;;;;1.40;1.40;;;3.80;99.90;;;;;;4931289;28;20209;-64
2022/12/08 06:13:48;;;;;;;1.40;1.40;;;3.80;99.90;;;;;;4931875;28;20620;-63
2022/12/08 06:16:15;;;;;;;1.60;1.50;;;3.90;99.90;;;;;;4932778;28;20248;-64
2022/12/08 06:18:42;;;;;;;1.60;1.50;;;3.90;99.90;;;;;;4932667;28;20226;-64
2022/12/08 06:21:11;;;;;;;1.30;1.30;;;4.00;99.90;;;;;;4930021;28;20212;-63
2022/12/08 06:23:38;;;;;;;1.50;1.50;;;4.00;99.90;;;;;;4931055;29;20208;-62
2022/12/08 06:26:09;;;;;;;1.57;1.47;;;4.00;99.90;;;;;;4931470;28;20226;-65
2022/12/08 06:28:37;;;;;;;1.60;1.50;;;4.10;99.90;;;;;;4930621;28;20216;-62
2022/12/08 06:31:08;;;;;;;1.40;1.40;;;4.00;99.90;;;;;;4932674;29;20735;-62
2022/12/08 06:33:35;;;;;;;1.27;1.27;;;4.10;99.90;;;;;;4931041;29;20295;-63
2022/12/08 06:36:02;;;;;;;1.50;1.50;;;4.10;99.90;;;;;;4931285;28;20236;-63
2022/12/08 06:38:29;;;;;;;1.40;1.40;;;4.10;99.90;;;;;;4927898;29;20204;-62
2022/12/08 06:40:56;;;;;;;1.40;1.37;;;4.10;99.90;;;;;;4931979;28;20206;-64
2022/12/08 06:43:25;;;;;;;1.60;1.50;;;4.10;99.90;;;;;;4931422;29;20222;-62
2022/12/08 06:45:52;;;;;;;1.30;1.30;;;4.10;99.90;;;;;;4927107;28;20716;-62
2022/12/08 06:48:19;;;;;;;1.30;1.30;;;4.10;99.90;;;;;;4931512;28;20224;-63
2022/12/08 06:50:46;;;;;;;1.30;1.30;;;4.20;99.90;;;;;;4930188;29;20853;-62
2022/12/08 06:53:14;;;;;;;1.57;1.50;;;4.20;99.90;;;;;;4930475;28;20311;-62
2022/12/08 06:55:44;;;;;;;1.30;1.30;;;4.20;99.90;;;;;;4929148;28;20218;-61
2022/12/08 06:58:11;;;;;;;1.30;1.30;;;4.20;99.90;;;;;;4925021;29;20204;-64
2022/12/08 07:00:40;;;;;;;1.20;1.20;;;4.20;99.90;;;;;;4929866;29;20223;-62
2022/12/08 07:03:07;;;;;;;1.40;1.40;;;4.20;99.90;;;;;;4929994;28;20214;-63
2022/12/08 07:05:34;;;;;;;1.70;1.60;;;4.20;99.90;;;;;;4928910;28;20314;-63
2022/12/08 07:08:01;;;;;;;1.70;1.60;;;4.20;99.90;;;;;;4932456;28;20295;-64
2022/12/08 07:10:28;;;;;;;1.60;1.50;;;4.20;99.90;;;;;;4937079;29;20208;-62
2022/12/08 07:12:55;;;;;;;1.37;1.37;;;4.20;99.90;;;;;;4942697;29;20231;-64
2022/12/08 07:15:21;;;;;;;1.37;1.37;;;4.30;99.90;;;;;;4931845;29;20219;-64
2022/12/08 07:17:50;;;;;;;1.37;1.37;;;4.30;99.90;;;;;;4928433;28;20747;-62
2022/12/08 07:20:17;;;;;;;1.10;1.10;;;4.30;99.90;;;;;;4930023;29;20204;-62
2022/12/08 07:22:49;;;;;;;1.37;1.37;;;4.30;99.90;;;;;;4931097;29;20207;-65
2022/12/08 07:25:16;;;;;;;1.30;1.30;;;4.30;99.90;;;;;;4930654;29;20231;-64
2022/12/08 07:27:44;;;;;;;1.37;1.37;;;4.30;99.90;;;;;;4930548;29;20323;-65
2022/12/08 07:30:11;;;;;;;1.30;1.30;;;4.30;99.90;;;;;;4930767;29;20232;-60
2022/12/08 07:32:39;;;;;;;1.40;1.40;;;4.40;99.90;;;;;;4930094;29;20215;-63
2022/12/08 07:35:10;;;;;;;1.50;1.50;;;4.40;99.90;;;;;;4944011;28;20203;-64
2022/12/08 07:37:37;;;;;;;1.27;1.23;;;4.40;99.90;;;;;;4935707;28;20307;-64
2022/12/08 07:40:05;;;;;;;1.40;1.40;;;4.40;99.90;;;;;;4944443;28;20288;-62
2022/12/08 07:42:32;;;;;;;1.70;1.60;;;4.50;99.90;;;;;;4951091;28;20299;-63
2022/12/08 07:44:59;;;;;;;1.30;1.30;;;4.50;99.90;;;;;;4931511;28;20220;-61
2022/12/08 07:47:26;;;;;;;1.40;1.40;;;4.50;99.90;;;;;;4934608;28;20339;-63
2022/12/08 07:49:53;;;;;;;1.20;1.20;;;4.50;99.90;;;;;;4935911;28;20221;-63
2022/12/08 07:52:22;;;;;;;1.50;1.40;;;4.60;99.90;;;;;;4934667;29;20214;-63
2022/12/08 07:54:49;;;;;;;1.10;1.10;;;4.60;99.90;;;;;;4933604;28;20200;-61
2022/12/08 07:57:15;;;;;;;1.63;1.53;;;4.50;99.90;;;;;;4939434;29;20224;-64
2022/12/08 07:59:42;;;;;;;1.83;1.73;;;4.50;99.90;;;;;;4932294;29;20716;-65
2022/12/08 08:02:16;;;;;;;1.63;1.53;;;4.40;99.90;;;;;;4937800;28;20292;-63
2022/12/08 08:04:43;;;;;;;1.60;1.50;;;4.50;99.90;;;;;;4930167;28;20224;-63
2022/12/08 08:07:10;;;;;;;1.30;1.30;;;4.40;99.90;;;;;;4931511;29;20282;-62
2022/12/08 08:09:38;;;;;;;1.50;1.50;;;4.40;99.90;;;;;;4935827;28;20265;-64
2022/12/08 08:12:06;;;;;;;1.33;1.33;;;4.40;99.90;;;;;;4930889;28;20307;-63
2022/12/08 08:14:32;;;;;;;1.20;1.20;;;4.50;99.90;;;;;;4930235;29;20208;-63
2022/12/08 08:16:59;;;;;;;1.20;1.20;;;4.50;99.90;;;;;;4930509;28;20239;-64
2022/12/08 08:19:26;;;;;;;1.20;1.20;;;4.60;99.90;;;;;;4930756;28;20208;-64
2022/12/08 08:21:53;;;;;;;1.40;1.40;;;4.60;99.90;;;;;;4930108;29;20210;-62
2022/12/08 08:24:21;;;;;;;1.40;1.40;;;4.60;99.90;;;;;;4930397;28;20746;-63
2022/12/08 08:26:49;;;;;;;1.43;1.40;;;4.60;99.90;;;;;;4936077;29;20246;-63
2022/12/08 08:29:16;;;;;;;1.47;1.40;;;4.60;99.90;;;;;;4933059;28;20234;-64
2022/12/08 08:31:42;;;;;;;1.30;1.30;;;4.60;99.90;;;;;;4931327;29;20295;-63
2022/12/08 08:34:09;;;;;;;1.30;1.30;;;4.60;99.90;;;;;;4930500;28;20291;-63
2022/12/08 08:36:36;;;;;;;1.33;1.33;;;4.60;99.90;;;;;;4930887;29;20228;-63
2022/12/08 08:39:03;;;;;;;1.20;1.20;;;4.70;99.90;;;;;;4931416;28;20226;-63
2022/12/08 08:41:30;;;;;;;1.67;1.57;;;4.70;99.90;;;;;;4931365;29;20204;-62
2022/12/08 08:43:58;;;;;;;1.53;1.43;;;4.70;99.90;;;;;;4930927;28;20238;-62
2022/12/08 08:46:25;;;;;;;1.30;1.30;;;4.80;99.90;;;;;;4934414;28;20266;-63
2022/12/08 08:48:52;;;;;;;1.30;1.30;;;4.80;99.90;;;;;;4938228;29;20228;-63
2022/12/08 08:51:19;;;;;;;1.50;1.40;;;4.90;99.90;;;;;;4931330;29;20218;-64
2022/12/08 08:53:46;;;;;;;1.50;1.40;;;4.90;99.90;;;;;;4931087;29;20299;-62
2022/12/08 08:56:13;;;;;;;1.50;1.40;;;4.90;99.90;;;;;;4937506;29;20670;-63
2022/12/08 08:58:41;;;;;;;1.47;1.33;;;5.00;99.90;;;;;;4931584;29;20214;-63
2022/12/08 09:01:15;;;;;;;1.30;1.30;;;5.00;99.90;;;;;;4930332;29;20291;-63
2022/12/08 09:03:42;;;;;;;1.57;1.50;;;5.00;99.90;;;;;;4931153;29;20212;-63
2022/12/08 09:06:09;;;;;;;1.30;1.30;;;5.10;99.90;;;;;;4930903;29;20307;-62
2022/12/08 09:08:36;;;;;;;1.40;1.40;;;5.10;99.90;;;;;;4931688;29;20235;-62
2022/12/08 09:11:02;;;;;;;1.37;1.27;;;5.20;99.90;;;;;;4930898;29;20255;-64
2022/12/08 09:13:29;;;;;;;1.17;1.17;;;5.20;99.90;;;;;;4926082;29;20210;-62
2022/12/08 09:15:56;;;;;;;1.30;1.30;;;5.20;99.90;;;;;;4941203;29;20515;-63
2022/12/08 09:18:25;;;;;;;1.40;1.40;;;5.20;99.90;;;;;;4942067;29;20208;-64
2022/12/08 09:20:52;;;;;;;1.50;1.40;;;5.20;99.90;;;;;;4941204;28;20240;-62
2022/12/08 09:23:18;;;;;;;1.30;1.30;;;5.20;99.90;;;;;;4930718;29;20291;-64
2022/12/08 09:25:45;;;;;;;1.50;1.40;;;5.30;99.90;;;;;;4930996;29;20621;-63
2022/12/08 09:28:12;;;;;;;1.20;1.20;;;5.30;99.90;;;;;;4930544;29;20280;-63
2022/12/08 09:30:39;;;;;;;1.23;1.23;;;5.30;99.90;;;;;;4930569;29;20234;-64
2022/12/08 09:33:07;;;;;;;1.20;1.20;;;5.40;99.90;;;;;;4930860;29;20232;-63
2022/12/08 09:35:36;;;;;;;1.10;1.10;;;5.50;99.90;;;;;;4923542;28;20266;-62
2022/12/08 09:38:02;;;;;;;1.83;1.40;;;5.50;99.90;;;;;;4929546;29;20242;-64
2022/12/08 09:40:32;;;;;;;1.50;1.50;;;5.50;99.90;;;;;;4928217;28;20206;-64
2022/12/08 09:43:09;;;;;;;1.40;1.30;;;5.60;99.90;;;;;;4930631;29;20580;-63
2022/12/08 09:45:37;;;;;;;1.30;1.30;;;5.60;99.90;;;;;;4931904;29;20200;-63
2022/12/08 09:48:10;;;;;;;1.00;1.00;;;5.70;99.90;;;;;;4927424;29;20216;-62
2022/12/08 09:50:43;;;;;;;1.30;1.30;;;5.70;99.90;;;;;;4933920;28;20227;-62
2022/12/08 09:53:14;;;;;;;1.50;1.50;;;5.80;99.90;;;;;;4933302;29;20298;-63
2022/12/08 09:55:45;;;;;;;1.60;1.50;;;5.80;99.90;;;;;;4932388;29;20314;-62
2022/12/08 09:58:21;;;;;;;1.27;1.27;;;5.80;99.90;;;;;;4928874;29;20730;-64
2022/12/08 10:00:48;;;;;;;1.70;1.60;;;5.80;99.90;;;;;;4929669;29;20214;-63
2022/12/08 10:03:15;;;;;;;1.30;1.30;;;5.90;99.90;;;;;;4931561;29;20651;-61
2022/12/08 10:05:49;;;;;;;1.50;1.40;;;5.90;99.90;;;;;;4930841;29;20585;-62
2022/12/08 10:08:20;;;;;;;1.43;1.33;;;5.90;99.90;;;;;;4931960;29;20211;-62
2022/12/08 10:10:56;;;;;;;1.40;1.40;;;5.90;99.90;;;;;;4932417;29;20716;-62
2022/12/08 10:13:30;;;;;;;1.67;1.53;;;6.00;99.90;;;;;;4934748;29;20260;-64
2022/12/08 10:16:09;;;;;;;1.30;1.30;;;6.00;99.90;;;;;;4933887;29;20244;-63
2022/12/08 10:18:37;;;;;;;1.70;1.60;;;6.00;99.90;;;;;;4925316;28;20295;-63
2022/12/08 10:21:14;;;;;;;1.53;1.43;;;6.10;99.90;;;;;;4934994;28;20204;-65
2022/12/08 10:23:46;;;;;;;1.60;1.50;;;6.00;99.90;;;;;;4928250;29;20296;-63
2022/12/08 10:26:15;;;;;;;1.67;1.57;;;6.00;99.90;;;;;;4933621;29;20319;-65
2022/12/08 10:28:42;;;;;;;1.60;1.50;;;6.00;99.90;;;;;;4935863;29;20208;-64
2022/12/08 10:31:16;;;;;;;1.30;1.30;;;6.00;99.90;;;;;;4943423;29;20275;-63
2022/12/08 10:33:44;;;;;;;1.30;1.30;;;6.00;99.90;;;;;;4952248;29;20212;-65
2022/12/08 10:36:12;;;;;;;1.83;1.70;;;6.00;99.90;;;;;;4948163;28;20227;-62
2022/12/08 10:38:40;;;;;;;1.40;1.40;;;6.10;99.90;;;;;;4938775;28;20562;-63
2022/12/08 10:41:13;;;;;;;1.50;1.40;;;6.10;99.90;;;;;;4933015;28;20215;-63
2022/12/08 10:43:43;;;;;;;1.73;1.63;;;6.10;99.90;;;;;;4932284;29;20276;-63
2022/12/08 10:46:13;;;;;;;1.30;1.30;;;6.10;99.90;;;;;;4932761;28;20358;-63
2022/12/08 10:48:49;;;;;;;1.40;1.40;;;6.10;99.90;;;;;;4932596;29;20212;-65
2022/12/08 10:51:28;;;;;;;1.33;1.33;;;6.20;99.90;;;;;;4932387;29;20203;-64
2022/12/08 10:53:56;;;;;;;1.20;1.20;;;6.20;99.90;;;;;;4931918;29;20208;-63
2022/12/08 10:56:26;;;;;;;1.23;1.23;;;6.20;99.90;;;;;;4932109;29;20235;-65
2022/12/08 10:59:06;;;;;;;1.23;1.23;;;6.20;99.90;;;;;;4932111;28;20684;-65
2022/12/08 11:01:37;;;;;;;1.30;1.30;;;6.20;99.90;;;;;;4932390;29;20219;-64
2022/12/08 11:04:07;;;;;;;1.30;1.30;;;6.30;99.90;;;;;;4932066;29;20294;-64
2022/12/08 11:06:37;;;;;;;1.30;1.30;;;6.30;99.90;;;;;;4932499;29;20287;-64
2022/12/08 11:09:07;;;;;;;1.40;1.40;;;6.30;99.90;;;;;;4934055;29;20295;-65
2022/12/08 11:11:47;;;;;;;1.40;1.40;;;6.30;99.90;;;;;;4936170;29;20247;-65
2022/12/08 11:14:18;;;;;;;1.50;1.40;;;6.20;99.90;;;;;;4933788;29;20531;-63
2022/12/08 11:16:45;;;;;;;1.40;1.40;;;6.20;99.90;;;;;;4933276;29;20232;-64
2022/12/08 11:19:16;;;;;;;1.30;1.30;;;6.20;99.90;;;;;;4933655;29;20208;-63
2022/12/08 11:21:45;;;;;;;1.43;1.40;;;6.30;99.90;;;;;;4933581;29;20299;-62
2022/12/08 11:24:24;;;;;;;1.50;1.40;;;6.30;99.90;;;;;;4937733;28;20573;-63
2022/12/08 11:26:54;;;;;;;1.43;1.33;;;6.30;99.90;;;;;;4937883;29;20650;-65
2022/12/08 11:29:22;;;;;;;1.40;1.40;;;6.40;99.90;;;;;;4935436;28;20586;-65
2022/12/08 11:31:55;;;;;;;1.20;1.20;;;6.40;99.90;;;;;;4932577;29;20204;-63
2022/12/08 11:34:30;;;;;;;2.43;1.57;;;6.40;99.90;;;;;;4932428;28;20208;-64
2022/12/08 11:36:59;;;;;;;1.20;1.20;;;6.50;99.90;;;;;;4931713;29;20224;-64
2022/12/08 11:39:28;;;;;;;1.10;1.10;;;6.50;99.90;;;;;;4932108;28;20584;-65
2022/12/08 11:41:57;;;;;;;1.20;1.20;;;6.50;99.90;;;;;;4932082;29;20227;-64
2022/12/08 11:44:33;;;;;;;0.90;0.90;;;6.50;99.90;;;;;;4932593;29;20744;-64
2022/12/08 11:47:06;;;;;;;1.20;1.20;;;6.50;99.90;;;;;;4932459;29;20234;-65
2022/12/08 11:49:36;;;;;;;1.20;1.20;;;6.60;99.90;;;;;;4932436;28;20232;-65
2022/12/08 11:52:14;;;;;;;1.30;1.30;;;6.60;99.90;;;;;;4932105;29;20267;-65
2022/12/08 11:54:46;;;;;;;1.23;1.23;;;6.70;99.90;;;;;;4997665;28;20207;-63
2022/12/08 11:57:15;;;;;;;1.23;1.23;;;6.60;99.90;;;;;;4932295;29;20263;-63
2022/12/08 11:59:45;;;;;;;1.23;1.23;;;6.60;99.90;;;;;;4932623;28;20262;-64
2022/12/08 12:02:16;;;;;;;1.27;1.27;;;6.60;99.90;;;;;;4931921;28;20304;-65
2022/12/08 12:04:49;;;;;;;1.30;1.30;;;6.60;99.90;;;;;;4933151;29;20609;-64
2022/12/08 12:07:39;;;;;;;1.00;1.00;;;6.60;99.90;;;;;;4933430;29;20736;-65
2022/12/08 12:10:25;;;;;;;1.20;1.20;;;6.60;99.90;;;;;;4930371;28;20231;-64
2022/12/08 12:13:44;;;;;;;2.00;1.27;;;6.60;99.90;;;;;;4933055;29;20210;-65
2022/12/08 12:16:33;;;;;;;1.50;1.43;;;6.70;99.90;;;;;;4931187;28;20720;-64
2022/12/08 12:19:03;;;;;;;1.50;1.40;;;6.60;99.90;;;;;;4935773;28;20222;-63
2022/12/08 12:21:34;;;;;;;1.30;1.30;;;6.70;99.90;;;;;;4933466;29;20291;-64
2022/12/08 12:24:06;;;;;;;1.60;1.60;;;6.70;99.90;;;;;;4937991;28;20295;-63
2022/12/08 12:26:36;;;;;;;1.57;1.47;;;6.80;99.90;;;;;;4932580;28;20403;-64
2022/12/08 12:29:07;;;;;;;1.13;1.13;;;6.80;99.90;;;;;;4935197;29;20238;-64
2022/12/08 12:31:36;;;;;;;1.03;1.03;;;6.80;99.90;;;;;;4932832;29;20315;-64
2022/12/08 12:34:10;;;;;;;1.00;1.00;;;6.80;99.90;;;;;;4931369;29;20247;-61
2022/12/08 12:36:52;;;;;;;1.20;1.20;;;6.90;99.90;;;;;;4932443;29;20363;-63
2022/12/08 12:39:23;;;;;;;1.70;1.60;;;6.70;99.90;;;;;;4931823;29;20235;-62
2022/12/08 12:41:53;;;;;;;1.80;1.70;;;6.40;99.90;;;;;;4933689;29;20275;-62
2022/12/08 12:44:42;;;;;;;1.70;1.60;;;6.30;99.90;;;;;;4931138;28;20212;-63
2022/12/08 12:47:35;;;;;;;1.63;1.50;;;6.20;99.90;;;;;;4930865;29;20647;-61
2022/12/08 12:50:08;;;;;;;2.00;1.90;;;6.20;99.90;;;;;;4927098;28;20232;-62
2022/12/08 12:52:43;;;;;;;1.70;1.60;;;6.20;99.90;;;;;;4926833;29;20290;-63
2022/12/08 12:55:54;;;;;;;1.97;1.87;;;6.10;99.90;;;;;;4930899;29;20215;-62
2022/12/08 12:58:39;;;;;;;1.50;1.50;;;6.00;99.90;;;;;;4930812;29;20212;-63
2022/12/08 13:01:48;;;;;;;1.40;1.40;;;5.70;99.90;;;;;;4931013;28;20299;-63
2022/12/08 13:04:17;;;;;;;1.73;1.63;;;5.60;99.90;;;;;;4930749;29;20740;-62
2022/12/08 13:06:47;;;;;;;1.50;1.40;;;5.60;99.90;;;;;;4930400;28;20818;-64
2022/12/08 13:09:21;;;;;;;2.00;1.90;;;5.60;99.90;;;;;;4929349;29;20295;-63
2022/12/08 13:11:52;;;;;;;1.70;1.60;;;5.60;99.90;;;;;;4924772;29;20273;-64
2022/12/08 13:14:31;;;;;;;1.40;1.40;;;5.60;99.90;;;;;;4930150;29;20277;-64
2022/12/08 13:17:00;;;;;;;1.77;1.67;;;5.50;99.90;;;;;;4926094;29;20319;-63
2022/12/08 13:19:32;;;;;;;1.83;1.73;;;5.70;99.90;;;;;;4932561;28;20581;-62